Time;durP1;ratioP1;P1;durP2;ratioP2;P2;SDS_P1;SDS_P2;PMS_P1;PMS_P2;Temp;Humidity;BMP_temperature;BMP_pressure;BME280_temperature;BME280_humidity;BME280_pressure;Samples;Min_cycle;Max_cycle;Signal;HPM_P1;HPM_P2
2024/01/22 00:00:21;;;;;;;33.42;12.15;;;;;;;-6.53;100.00;99238.66;3110390;23;20039;-88
2024/01/22 00:01:37;;;;;;;31.08;12.93;;;;;;;-6.53;100.00;99246.31;3115835;23;20035;-88
2024/01/22 00:02:53;;;;;;;30.23;12.93;;;;;;;-6.54;100.00;99242.00;3110446;23;20015;-89
2024/01/22 00:04:09;;;;;;;29.52;12.65;;;;;;;-6.65;100.00;99233.78;3100770;23;20066;-86
2024/01/22 00:05:25;;;;;;;34.65;12.55;;;;;;;-6.64;100.00;99230.44;3115282;23;20017;-88
2024/01/22 00:06:42;;;;;;;31.50;12.55;;;;;;;-6.83;100.00;99233.69;3124218;23;20010;-88
2024/01/22 00:08:02;;;;;;;30.95;13.52;;;;;;;-6.78;100.00;99237.34;3118691;23;20091;-89
2024/01/22 00:09:19;;;;;;;27.15;10.48;;;;;;;-7.03;100.00;99235.16;3131882;23;20089;-89
2024/01/22 00:10:38;;;;;;;30.48;13.20;;;;;;;-6.81;100.00;99232.97;3133066;23;20018;-89
2024/01/22 00:11:54;;;;;;;29.55;12.10;;;;;;;-6.69;100.00;99227.66;3109964;23;20019;-88
2024/01/22 00:13:11;;;;;;;32.55;11.68;;;;;;;-6.86;100.00;99229.28;3099998;23;20050;-89
2024/01/22 00:14:27;;;;;;;32.53;13.63;;;;;;;-6.95;100.00;99231.34;3115564;23;20029;-88
2024/01/22 00:15:45;;;;;;;31.98;12.65;;;;;;;-6.67;100.00;99232.81;3123765;23;20531;-89
2024/01/22 00:17:03;;;;;;;26.20;10.57;;;;;;;-7.01;100.00;99231.88;3123883;23;20096;-89
2024/01/22 00:18:20;;;;;;;32.83;13.10;;;;;;;-6.74;100.00;99226.53;3123677;23;20014;-89
2024/01/22 00:19:37;;;;;;;32.78;11.68;;;;;;;-6.89;100.00;99228.25;3139366;23;20486;-89
2024/01/22 00:20:54;;;;;;;32.47;12.73;;;;;;;-6.80;100.00;99236.41;3149561;23;20017;-89
2024/01/22 00:22:11;;;;;;;31.20;12.48;;;;;;;-6.93;100.00;99231.44;3117622;23;20022;-88
2024/01/22 00:23:27;;;;;;;35.58;13.07;;;;;;;-6.73;100.00;99225.72;3115948;23;20006;-90
2024/01/22 00:24:43;;;;;;;46.75;15.77;;;;;;;-6.88;100.00;99230.00;3124266;23;20223;-91
2024/01/22 00:25:59;;;;;;;37.90;15.75;;;;;;;-6.54;100.00;99227.59;3109151;23;20094;-88
2024/01/22 00:27:14;;;;;;;37.88;15.38;;;;;;;-6.73;100.00;99225.72;3129950;23;20448;-88
2024/01/22 00:28:30;;;;;;;37.88;14.88;;;;;;;-6.67;100.00;99218.44;3118332;23;20019;-89
2024/01/22 00:29:46;;;;;;;42.10;15.20;;;;;;;-6.63;100.00;99223.69;3100748;23;20079;-89
2024/01/22 00:31:02;;;;;;;37.30;14.82;;;;;;;-6.67;100.00;99205.69;3115412;23;20023;-89
2024/01/22 00:32:20;;;;;;;43.80;15.95;;;;;;;-6.71;100.00;99208.84;3139325;23;20375;-88
2024/01/22 00:33:36;;;;;;;34.05;12.75;;;;;;;-6.98;100.00;99206.59;3132850;23;20051;-89
2024/01/22 00:34:52;;;;;;;47.25;19.25;;;;;;;-6.70;100.00;99197.91;3137167;23;20014;-89
2024/01/22 00:36:13;;;;;;;54.33;18.02;;;;;;;-6.80;100.00;99195.66;3149273;23;20006;-89
2024/01/22 00:37:29;;;;;;;38.45;15.57;;;;;;;-6.86;100.00;99201.28;3117542;23;20452;-89
2024/01/22 00:38:45;;;;;;;45.08;16.17;;;;;;;-6.88;100.00;99195.25;3130690;23;20024;-88
2024/01/22 00:40:01;;;;;;;49.40;18.48;;;;;;;-6.74;100.00;99195.97;3148824;23;20006;-89
2024/01/22 00:41:17;;;;;;;48.80;16.95;;;;;;;-6.71;100.00;99198.66;3148338;23;20089;-89
2024/01/22 00:42:33;;;;;;;44.80;16.67;;;;;;;-6.70;100.00;99199.56;3132624;23;20015;-88
2024/01/22 00:43:49;;;;;;;43.65;17.60;;;;;;;-7.04;100.00;99193.53;3124009;23;20025;-90
2024/01/22 00:45:06;;;;;;;44.05;17.00;;;;;;;-7.03;100.00;99192.72;3139399;23;20506;-88
2024/01/22 00:46:22;;;;;;;43.05;16.42;;;;;;;-7.12;100.00;99197.34;3149240;23;20069;-89
2024/01/22 00:47:38;;;;;;;40.95;15.57;;;;;;;-7.21;100.00;99194.28;3132202;23;20754;-89
2024/01/22 00:48:54;;;;;;;41.83;14.90;;;;;;;-7.14;100.00;99188.72;3123691;23;20026;-88
2024/01/22 00:50:11;;;;;;;46.58;16.95;;;;;;;-7.27;100.00;99187.19;3118342;23;20019;-89
2024/01/22 00:51:29;;;;;;;44.67;15.68;;;;;;;-7.40;100.00;99188.19;3095552;23;20102;-89
2024/01/22 00:52:44;;;;;;;43.58;16.65;;;;;;;-7.20;100.00;99180.78;3107826;23;20019;-89
2024/01/22 00:54:01;;;;;;;41.92;15.40;;;;;;;-7.18;100.00;99179.19;3139288;23;20136;-89
2024/01/22 00:55:18;;;;;;;45.60;16.52;;;;;;;-7.06;100.00;99171.31;3132929;23;20023;-89
2024/01/22 00:56:36;;;;;;;38.53;13.23;;;;;;;-7.32;100.00;99168.25;3124345;23;20452;-88
2024/01/22 00:57:52;;;;;;;47.25;15.70;;;;;;;-7.09;100.00;99161.88;3109421;23;20011;-89
2024/01/22 00:59:08;;;;;;;34.88;14.80;;;;;;;-6.93;100.00;99167.78;3130880;23;20496;-88
2024/01/22 01:00:23;;;;;;;35.70;14.50;;;;;;;-7.00;100.00;99159.81;3149672;23;20010;-89
2024/01/22 01:01:39;;;;;;;35.53;14.75;;;;;;;-6.92;100.00;99161.91;3149423;23;20014;-89
2024/01/22 01:02:55;;;;;;;38.53;14.18;;;;;;;-6.97;100.00;99165.09;3132985;23;20036;-89
2024/01/22 01:04:11;;;;;;;41.53;14.73;;;;;;;-6.78;100.00;99166.06;3140118;23;20014;-90
2024/01/22 01:05:27;;;;;;;40.20;13.90;;;;;;;-6.82;100.00;99171.78;3147961;23;20518;-89
2024/01/22 01:06:43;;;;;;;39.92;14.32;;;;;;;-6.87;100.00;99169.00;3149254;23;20018;-88
2024/01/22 01:08:00;;;;;;;46.00;15.55;;;;;;;-6.83;100.00;99168.34;3133086;23;20094;-89
2024/01/22 01:09:16;;;;;;;36.70;13.50;;;;;;;-6.84;100.00;99173.38;3124117;23;20087;-89
2024/01/22 01:10:34;;;;;;;37.33;14.00;;;;;;;-6.70;100.00;99169.88;3123464;23;20018;-89
2024/01/22 01:11:52;;;;;;;34.42;13.32;;;;;;;-6.55;100.00;99167.25;3124128;23;20019;-88
2024/01/22 01:13:09;;;;;;;36.13;13.52;;;;;;;-6.59;100.00;99160.25;3124595;23;20018;-88
2024/01/22 01:14:27;;;;;;;31.85;13.05;;;;;;;-6.46;100.00;99164.28;3109233;23;20663;-88
2024/01/22 01:15:43;;;;;;;31.55;13.73;;;;;;;-6.61;100.00;99163.50;3086755;23;20111;-89
2024/01/22 01:16:59;;;;;;;35.33;12.13;;;;;;;-6.58;100.00;99161.09;3086535;23;20020;-90
2024/01/22 01:18:15;;;;;;;27.48;11.50;;;;;;;-6.61;100.00;99159.31;3115509;23;20022;-88
2024/01/22 01:19:31;;;;;;;31.13;13.23;;;;;;;-6.80;100.00;99144.72;3118650;23;20022;-89
2024/01/22 01:20:48;;;;;;;33.70;13.43;;;;;;;-6.75;100.00;99142.44;3124840;23;20014;-88
2024/01/22 01:22:05;;;;;;;33.65;12.93;;;;;;;-6.77;100.00;99149.09;3118247;23;20019;-89
2024/01/22 01:23:21;;;;;;;33.58;13.18;;;;;;;-7.08;100.00;99138.19;3095049;23;20039;-89
2024/01/22 01:24:37;;;;;;;32.63;12.65;;;;;;;-6.87;100.00;99137.53;3100840;23;20288;-88
2024/01/22 01:25:53;;;;;;;37.67;13.60;;;;;;;-6.97;100.00;99134.53;3123567;23;20014;-89
2024/01/22 01:27:09;;;;;;;35.03;12.35;;;;;;;-7.09;100.00;99132.19;3102721;23;20091;-89
2024/01/22 01:28:27;;;;;;;30.25;11.98;;;;;;;-6.83;100.00;99129.28;3094428;23;20465;-88
2024/01/22 01:29:48;;;;;;;38.67;13.40;;;;;;;-6.82;100.00;99120.84;3101349;23;20017;-89
2024/01/22 01:31:07;;;;;;;32.67;12.20;;;;;;;-6.96;100.00;99118.47;3118515;23;20074;-89
2024/01/22 01:32:23;;;;;;;35.00;12.30;;;;;;;-6.97;100.00;99115.81;3094967;23;20504;-89
2024/01/22 01:33:39;;;;;;;27.02;9.25;;;;;;;-7.53;100.00;99118.84;3116125;23;20093;-89
2024/01/22 01:34:55;;;;;;;21.88;9.63;;;;;;;-7.15;100.00;99115.72;3118458;23;20015;-89
2024/01/22 01:36:11;;;;;;;24.98;9.20;;;;;;;-7.16;100.00;99101.25;3109010;23;20046;-89
2024/01/22 01:37:26;;;;;;;27.45;9.85;;;;;;;-7.14;100.00;99099.66;3092280;23;20091;-89
2024/01/22 01:38:43;;;;;;;31.80;10.07;;;;;;;-7.13;100.00;99086.13;3101748;23;20146;-89
2024/01/22 01:39:59;;;;;;;29.65;10.23;;;;;;;-6.93;100.00;99076.13;3119390;23;20018;-89
2024/01/22 01:41:15;;;;;;;27.38;9.88;;;;;;;-7.09;100.00;99075.34;3125868;23;20015;-89
2024/01/22 01:42:31;;;;;;;22.15;8.55;;;;;;;-6.94;100.00;99082.88;3089680;24;20390;-89
2024/01/22 01:43:47;;;;;;;24.55;8.93;;;;;;;-7.05;100.00;99072.16;3107933;23;20101;-88
2024/01/22 01:45:04;;;;;;;22.33;8.55;;;;;;;-6.93;100.00;99077.00;3119500;23;20015;-89
2024/01/22 01:46:21;;;;;;;19.50;8.63;;;;;;;-6.75;100.00;99073.69;3118858;23;20058;-89
2024/01/22 01:47:37;;;;;;;26.83;10.63;;;;;;;-6.78;100.00;99076.94;3110423;23;20114;-89
2024/01/22 01:48:55;;;;;;;25.45;10.52;;;;;;;-6.75;100.00;99087.25;3095392;23;20024;-89
2024/01/22 01:50:13;;;;;;;34.20;13.20;;;;;;;-6.63;100.00;99081.06;3101240;23;20021;-89
2024/01/22 01:51:30;;;;;;;26.48;9.98;;;;;;;-6.98;100.00;99070.81;3112045;23;20073;-89
2024/01/22 01:52:46;;;;;;;24.77;10.55;;;;;;;-6.88;100.00;99069.59;3098443;23;20314;-89
2024/01/22 01:54:05;;;;;;;22.05;9.60;;;;;;;-6.81;100.00;99069.13;3097368;23;20039;-89
2024/01/22 01:55:22;;;;;;;20.70;8.52;;;;;;;-6.69;100.00;99072.31;3112200;23;20038;-87
2024/01/22 01:56:38;;;;;;;22.60;8.15;;;;;;;-6.61;100.00;99080.34;3111739;23;20094;-88
2024/01/22 01:57:55;;;;;;;25.80;10.25;;;;;;;-6.75;100.00;99073.69;3097126;23;20037;-88
2024/01/22 01:59:12;;;;;;;26.05;9.43;;;;;;;-6.69;100.00;99063.78;3118332;23;20098;-89
2024/01/22 02:00:28;;;;;;;17.42;7.00;;;;;;;-6.83;100.00;99066.50;3105822;23;20015;-89
2024/01/22 02:01:44;;;;;;;25.55;10.23;;;;;;;-6.55;100.00;99064.50;3102214;23;20012;-88
2024/01/22 02:03:01;;;;;;;25.98;11.05;;;;;;;-6.57;100.00;99069.50;3110789;23;20015;-89
2024/01/22 02:04:18;;;;;;;27.40;10.68;;;;;;;-6.59;100.00;99063.47;3109937;23;20030;-88
2024/01/22 02:05:35;;;;;;;34.10;13.50;;;;;;;-6.64;100.00;99056.38;3105060;23;20019;-88
2024/01/22 02:06:53;;;;;;;34.67;14.38;;;;;;;-6.60;100.00;99071.00;3102336;23;20051;-88
2024/01/22 02:08:09;;;;;;;42.70;16.88;;;;;;;-6.55;100.00;99067.91;3096338;23;20441;-88
2024/01/22 02:09:47;;;;;;;38.55;15.82;;;;;;;-6.53;100.00;99073.09;3094413;23;20104;-88
2024/01/22 02:11:03;;;;;;;40.75;15.20;;;;;;;-6.51;100.00;99068.94;3109752;23;20098;-89
2024/01/22 02:12:20;;;;;;;39.92;16.17;;;;;;;-6.49;100.00;99069.88;3110058;23;20015;-89
2024/01/22 02:13:36;;;;;;;39.47;16.23;;;;;;;-6.50;100.00;99068.13;3111125;23;20018;-88
2024/01/22 02:14:52;;;;;;;41.03;16.58;;;;;;;-6.50;100.00;99059.59;3118870;23;20019;-88
2024/01/22 02:16:08;;;;;;;34.55;15.15;;;;;;;-6.62;100.00;99054.78;3127414;23;20015;-88
2024/01/22 02:17:24;;;;;;;39.78;15.93;;;;;;;-6.68;100.00;99053.69;3117569;23;20380;-88
2024/01/22 02:18:41;;;;;;;41.00;15.23;;;;;;;-6.78;100.00;99046.38;3100785;23;20022;-90
2024/01/22 02:19:59;;;;;;;42.47;15.57;;;;;;;-6.67;100.00;99047.78;3125718;23;20062;-90
2024/01/22 02:21:15;;;;;;;36.60;13.57;;;;;;;-6.82;100.00;99040.25;3140817;23;20069;-88
2024/01/22 02:22:30;;;;;;;48.65;17.23;;;;;;;-6.82;100.00;99039.38;3119089;23;20019;-89
2024/01/22 02:23:50;;;;;;;46.28;16.77;;;;;;;-6.77;100.00;99035.38;3131077;23;20053;-88
2024/01/22 02:25:06;;;;;;;41.33;15.27;;;;;;;-6.87;100.00;99043.34;3119069;23;20097;-89
2024/01/22 02:26:22;;;;;;;43.35;16.05;;;;;;;-7.00;100.00;99044.41;3131676;23;20018;-87
2024/01/22 02:27:38;;;;;;;44.00;17.45;;;;;;;-6.86;100.00;99042.53;3133821;23;20094;-89
2024/01/22 02:28:54;;;;;;;44.85;18.08;;;;;;;-6.79;100.00;99046.28;3139375;23;20122;-89
2024/01/22 02:30:10;;;;;;;38.85;16.10;;;;;;;-6.95;100.00;99048.03;3149964;23;20014;-89
2024/01/22 02:31:26;;;;;;;43.28;16.92;;;;;;;-6.78;100.00;99041.28;3150178;23;20518;-91
2024/01/22 02:32:42;;;;;;;47.05;16.88;;;;;;;-6.77;100.00;99042.13;3147659;23;20093;-89
2024/01/22 02:33:58;;;;;;;39.03;16.75;;;;;;;-6.72;100.00;99043.25;3143124;23;20011;-89
2024/01/22 02:35:14;;;;;;;40.65;17.08;;;;;;;-6.77;100.00;99037.94;3133956;23;20006;-89
2024/01/22 02:36:32;;;;;;;40.80;17.13;;;;;;;-6.68;100.00;99035.88;3124664;23;20026;-89
2024/01/22 02:37:49;;;;;;;39.50;15.98;;;;;;;-6.89;100.00;99040.75;3124782;23;20019;-89
2024/01/22 02:39:05;;;;;;;37.72;16.23;;;;;;;-6.92;100.00;99039.69;3124520;23;20093;-88
2024/01/22 02:40:21;;;;;;;42.83;16.35;;;;;;;-6.95;100.00;99033.66;3124931;23;20010;-89
2024/01/22 02:41:38;;;;;;;45.90;17.20;;;;;;;-6.88;100.00;99027.22;3125126;23;20038;-88
2024/01/22 02:42:54;;;;;;;43.47;16.02;;;;;;;-6.88;100.00;99022.13;3140012;23;20056;-89
2024/01/22 02:44:10;;;;;;;37.17;16.38;;;;;;;-7.27;100.00;99019.25;3149840;23;20462;-88
2024/01/22 02:45:26;;;;;;;44.33;16.42;;;;;;;-7.11;100.00;99015.84;3134180;23;20090;-88
2024/01/22 02:46:42;;;;;;;40.42;16.25;;;;;;;-7.22;100.00;99019.50;3137829;23;20456;-89
2024/01/22 02:47:58;;;;;;;47.17;16.90;;;;;;;-7.19;100.00;99017.13;3118430;23;20015;-87
2024/01/22 02:49:14;;;;;;;43.40;16.73;;;;;;;-7.24;100.00;99015.22;3115957;23;20026;-89
2024/01/22 02:50:30;;;;;;;40.30;15.13;;;;;;;-7.31;100.00;99018.22;3124420;23;20010;-89
2024/01/22 02:51:49;;;;;;;43.55;15.63;;;;;;;-7.22;100.00;99016.97;3124837;23;20014;-89
2024/01/22 02:53:06;;;;;;;37.65;14.07;;;;;;;-7.26;100.00;99006.63;3125950;23;20434;-89
2024/01/22 02:54:22;;;;;;;41.75;15.45;;;;;;;-7.17;100.00;98995.16;3124547;23;20022;-89
2024/01/22 02:55:38;;;;;;;42.20;15.50;;;;;;;-7.20;100.00;98987.38;3124891;23;20011;-88
2024/01/22 02:56:54;;;;;;;39.15;14.95;;;;;;;-7.38;100.00;98986.50;3125391;23;20025;-89
2024/01/22 02:58:10;;;;;;;43.15;17.65;;;;;;;-7.32;100.00;98975.78;3133729;23;20412;-88
2024/01/22 02:59:26;;;;;;;44.25;14.48;;;;;;;-7.54;100.00;98969.59;3119213;23;20078;-88
2024/01/22 03:00:42;;;;;;;42.05;14.65;;;;;;;-7.50;100.00;98974.81;3130987;23;20020;-89
2024/01/22 03:01:58;;;;;;;45.00;16.85;;;;;;;-7.22;100.00;98971.16;3133373;23;20386;-89
2024/01/22 03:03:15;;;;;;;41.63;16.27;;;;;;;-7.19;100.00;98966.22;3124403;23;20018;-88
2024/01/22 03:04:31;;;;;;;44.33;16.30;;;;;;;-7.10;100.00;98961.63;3139405;23;20080;-88
2024/01/22 03:05:47;;;;;;;25.08;9.45;;;;;;;-7.76;100.00;98957.38;3142925;23;20006;-89
2024/01/22 03:07:03;;;;;;;31.13;13.30;;;;;;;-7.49;100.00;98957.09;3140584;23;20465;-89
2024/01/22 03:08:19;;;;;;;31.52;12.85;;;;;;;-7.33;100.00;98956.22;3134005;23;20017;-87
2024/01/22 03:09:35;;;;;;;37.50;13.43;;;;;;;-7.18;100.00;98952.72;3125214;23;20062;-89
2024/01/22 03:10:51;;;;;;;28.48;11.88;;;;;;;-7.09;100.00;98950.63;3140816;23;20011;-88
2024/01/22 03:12:07;;;;;;;35.50;14.05;;;;;;;-7.06;100.00;98960.97;3148901;23;20010;-89
2024/01/22 03:13:24;;;;;;;32.97;13.30;;;;;;;-7.00;100.00;98960.41;3149491;23;20017;-88
2024/01/22 03:14:40;;;;;;;30.63;12.95;;;;;;;-6.85;100.00;98961.16;3133873;23;20106;-89
2024/01/22 03:15:56;;;;;;;32.30;11.75;;;;;;;-6.96;100.00;98958.09;3133229;23;20076;-87
2024/01/22 03:17:12;;;;;;;35.42;13.18;;;;;;;-6.82;100.00;98958.75;3140124;23;20022;-89
2024/01/22 03:18:28;;;;;;;33.15;12.50;;;;;;;-6.81;100.00;98957.09;3149582;23;20017;-88
2024/01/22 03:19:44;;;;;;;28.83;11.38;;;;;;;-6.74;100.00;98960.84;3148806;23;20551;-88
2024/01/22 03:21:05;;;;;;;25.25;11.18;;;;;;;-6.94;100.00;98958.16;3118502;23;20033;-89
2024/01/22 03:22:20;;;;;;;31.15;12.77;;;;;;;-6.93;100.00;98953.94;3117466;23;20043;-88
2024/01/22 03:23:36;;;;;;;31.15;13.60;;;;;;;-7.10;100.00;98964.16;3140658;23;20387;-89
2024/01/22 03:24:52;;;;;;;33.72;12.57;;;;;;;-7.05;100.00;98957.63;3118807;23;20016;-89
2024/01/22 03:26:19;;;;;;;30.67;11.85;;;;;;;-7.00;100.00;98953.63;3131107;23;20049;-89
2024/01/22 03:27:36;;;;;;;39.17;13.93;;;;;;;-6.87;100.00;98944.06;3133975;23;20011;-89
2024/01/22 03:28:54;;;;;;;35.15;13.00;;;;;;;-6.81;100.00;98945.22;3118387;23;20096;-89
2024/01/22 03:30:11;;;;;;;37.38;14.70;;;;;;;-6.79;100.00;98931.69;3117042;23;20018;-87
2024/01/22 03:31:32;;;;;;;37.00;13.77;;;;;;;-6.84;100.00;98924.72;3125180;23;20076;-89
2024/01/22 03:32:49;;;;;;;40.97;15.85;;;;;;;-6.76;100.00;98930.19;3134018;23;20035;-89
2024/01/22 03:34:05;;;;;;;25.80;12.75;;;;;;;-6.88;100.00;98929.59;3110100;23;20349;-89
2024/01/22 03:35:21;;;;;;;35.00;13.52;;;;;;;-7.11;100.00;98927.66;3115883;23;20017;-89
2024/01/22 03:36:37;;;;;;;30.50;12.48;;;;;;;-7.05;100.00;98926.19;3139337;23;20017;-89
2024/01/22 03:37:53;;;;;;;37.65;13.80;;;;;;;-7.32;100.00;98926.56;3118465;23;20159;-89
2024/01/22 03:39:09;;;;;;;36.28;12.80;;;;;;;-7.21;100.00;98927.13;3131085;23;20077;-88
2024/01/22 03:40:25;;;;;;;30.63;12.30;;;;;;;-7.18;100.00;98929.81;3134025;23;20007;-89
2024/01/22 03:41:41;;;;;;;34.20;13.57;;;;;;;-7.14;100.00;98929.16;3110513;23;20007;-90
2024/01/22 03:42:57;;;;;;;31.75;13.77;;;;;;;-7.14;100.00;98926.59;3131292;23;20006;-88
2024/01/22 03:44:13;;;;;;;35.08;14.38;;;;;;;-7.11;100.00;98917.47;3118668;23;20097;-88
2024/01/22 03:45:29;;;;;;;31.88;14.90;;;;;;;-6.97;100.00;98918.16;3109672;23;20019;-89
2024/01/22 03:46:45;;;;;;;38.58;15.18;;;;;;;-7.01;100.00;98918.78;3106745;23;20090;-89
2024/01/22 03:48:02;;;;;;;33.08;14.02;;;;;;;-7.34;100.00;98921.41;3102871;23;20055;-89
2024/01/22 03:49:20;;;;;;;37.03;13.93;;;;;;;-7.11;100.00;98914.06;3115711;23;20059;-89
2024/01/22 03:50:37;;;;;;;37.40;14.15;;;;;;;-7.14;100.00;98912.22;3142008;23;20073;-90
2024/01/22 03:51:53;;;;;;;36.53;14.38;;;;;;;-7.09;100.00;98913.31;3119928;23;20008;-89
2024/01/22 03:53:09;;;;;;;37.00;14.13;;;;;;;-7.05;100.00;98911.81;3095705;23;20024;-88
2024/01/22 03:54:25;;;;;;;32.78;13.85;;;;;;;-6.99;100.00;98909.56;3123743;23;20109;-88
2024/01/22 03:55:42;;;;;;;30.30;12.43;;;;;;;-7.27;100.00;98913.25;3118806;23;20008;-89
2024/01/22 03:57:06;;;;;;;34.92;13.15;;;;;;;-7.12;100.00;98912.31;3102146;23;20011;-90
2024/01/22 03:58:22;;;;;;;39.83;14.27;;;;;;;-7.07;100.00;98900.69;3119374;23;20011;-89
2024/01/22 03:59:38;;;;;;;35.55;13.85;;;;;;;-7.22;100.00;98905.00;3124713;23;20098;-89
2024/01/22 04:00:54;;;;;;;39.53;15.98;;;;;;;-7.04;100.00;98902.50;3140401;23;20006;-89
2024/01/22 04:02:10;;;;;;;51.38;17.08;;;;;;;-7.20;100.00;98891.53;3133454;23;20014;-88
2024/01/22 04:03:26;;;;;;;55.50;18.63;;;;;;;-7.16;100.00;98890.03;3125447;23;20019;-89
2024/01/22 04:04:42;;;;;;;43.55;14.43;;;;;;;-7.03;100.00;98892.41;3125030;23;20011;-90
2024/01/22 04:05:59;;;;;;;29.52;12.38;;;;;;;-6.83;100.00;98897.59;3124244;23;20010;-90
2024/01/22 04:07:15;;;;;;;22.88;10.68;;;;;;;-7.05;100.00;98910.91;3124872;23;20058;-88
2024/01/22 04:08:31;;;;;;;36.85;14.65;;;;;;;-6.95;100.00;98902.94;3110327;23;20094;-89
2024/01/22 04:09:48;;;;;;;38.25;15.48;;;;;;;-6.93;100.00;98906.44;3115715;23;20095;-89
2024/01/22 04:11:04;;;;;;;44.47;15.25;;;;;;;-7.13;100.00;98908.00;3139759;23;20019;-89
2024/01/22 04:12:21;;;;;;;39.60;15.32;;;;;;;-7.00;100.00;98905.25;3132944;23;20093;-89
2024/01/22 04:13:43;;;;;;;44.47;15.95;;;;;;;-7.01;100.00;98902.66;3124425;23;20018;-89
2024/01/22 04:15:00;;;;;;;40.88;15.95;;;;;;;-6.92;100.00;98899.69;3109470;23;20448;-89
2024/01/22 04:16:17;;;;;;;44.47;15.65;;;;;;;-6.87;100.00;98910.97;3127857;23;20098;-89
2024/01/22 04:17:33;;;;;;;42.17;16.52;;;;;;;-7.02;100.00;98906.88;3133176;23;20018;-88
2024/01/22 04:18:51;;;;;;;41.65;14.63;;;;;;;-7.06;100.00;98904.97;3140399;23;20040;-88
2024/01/22 04:20:08;;;;;;;40.85;14.18;;;;;;;-7.03;100.00;98909.34;3119008;23;20015;-88
2024/01/22 04:21:24;;;;;;;40.03;15.25;;;;;;;-7.01;100.00;98897.56;3130379;23;20103;-89
2024/01/22 04:22:40;;;;;;;34.80;13.73;;;;;;;-7.40;100.00;98896.53;3133654;23;20380;-89
2024/01/22 04:23:57;;;;;;;36.55;14.68;;;;;;;-7.67;100.00;98901.94;3122322;23;20078;-90
2024/01/22 04:25:13;;;;;;;36.25;15.95;;;;;;;-7.52;100.00;98896.78;3118624;23;20019;-89
2024/01/22 04:26:29;;;;;;;34.03;14.05;;;;;;;-7.63;100.00;98890.25;3130050;23;20440;-88
2024/01/22 04:27:45;;;;;;;36.13;14.57;;;;;;;-7.73;100.00;98883.84;3117323;23;20058;-90
2024/01/22 04:29:04;;;;;;;35.92;13.60;;;;;;;-7.72;100.00;98882.16;3099387;23;20011;-88
2024/01/22 04:30:20;;;;;;;33.50;13.18;;;;;;;-7.58;100.00;98883.72;3112642;23;20103;-89
2024/01/22 04:31:37;;;;;;;34.75;13.73;;;;;;;-7.47;100.00;98883.41;3137870;23;20007;-88
2024/01/22 04:32:52;;;;;;;26.02;10.90;;;;;;;-7.80;100.00;98877.56;3133489;23;20021;-88
2024/01/22 04:34:09;;;;;;;35.22;13.93;;;;;;;-7.44;100.00;98883.56;3108300;23;20056;-89
2024/01/22 04:35:25;;;;;;;28.13;11.38;;;;;;;-7.59;100.00;98886.22;3109151;23;20074;-89
2024/01/22 04:36:42;;;;;;;28.95;12.65;;;;;;;-7.43;100.00;98880.22;3094321;23;20399;-89
2024/01/22 04:37:58;;;;;;;18.25;6.40;;;;;;;-7.38;100.00;98883.88;3122611;23;20479;-89
2024/01/22 04:39:16;;;;;;;34.20;13.93;;;;;;;-7.35;100.00;98881.50;3132368;23;20034;-89
2024/01/22 04:40:32;;;;;;;29.70;12.40;;;;;;;-7.40;100.00;98878.72;3124873;23;20017;-89
2024/01/22 04:41:49;;;;;;;35.95;12.98;;;;;;;-7.21;100.00;98871.13;3107980;23;20026;-88
2024/01/22 04:43:05;;;;;;;31.55;14.00;;;;;;;-7.00;100.00;98862.00;3108668;23;20019;-88
2024/01/22 04:44:21;;;;;;;33.40;12.77;;;;;;;-7.17;100.00;98866.28;3100045;23;20353;-87
2024/01/22 04:45:38;;;;;;;34.03;13.60;;;;;;;-7.13;100.00;98862.19;3114223;23;20014;-89
2024/01/22 04:46:57;;;;;;;33.85;13.70;;;;;;;-7.02;100.00;98853.41;3121881;23;20023;-88
2024/01/22 04:48:14;;;;;;;38.50;13.38;;;;;;;-7.00;100.00;98849.28;3140018;23;20013;-88
2024/01/22 04:49:30;;;;;;;33.22;12.63;;;;;;;-7.04;100.00;98854.16;3118018;23;20452;-89
2024/01/22 04:50:45;;;;;;;28.35;11.75;;;;;;;-7.15;100.00;98862.13;3114511;23;20054;-89
2024/01/22 04:52:01;;;;;;;31.33;12.93;;;;;;;-7.29;100.00;98866.53;3118757;23;20011;-89
2024/01/22 04:53:20;;;;;;;34.17;13.57;;;;;;;-7.10;100.00;98860.69;3108711;23;20017;-88
2024/01/22 04:54:36;;;;;;;31.65;12.07;;;;;;;-7.14;100.00;98856.25;3131310;23;20018;-88
2024/01/22 04:55:52;;;;;;;33.40;12.82;;;;;;;-6.97;100.00;98851.09;3132707;23;20018;-89
2024/01/22 04:57:08;;;;;;;40.92;14.77;;;;;;;-6.98;100.00;98842.59;3117509;23;20015;-89
2024/01/22 04:58:24;;;;;;;33.78;12.88;;;;;;;-7.19;100.00;98847.53;3123843;23;20021;-92
2024/01/22 04:59:40;;;;;;;37.20;12.20;;;;;;;-7.46;100.00;98854.63;3107527;23;20359;-90
2024/01/22 05:00:56;;;;;;;31.17;12.40;;;;;;;-7.29;100.00;98851.25;3114818;23;20094;-89
2024/01/22 05:02:12;;;;;;;39.70;13.95;;;;;;;-7.13;100.00;98852.91;3123706;23;20007;-89
2024/01/22 05:03:28;;;;;;;38.67;13.27;;;;;;;-6.96;100.00;98848.63;3139293;23;20041;-89
2024/01/22 05:04:44;;;;;;;33.08;13.23;;;;;;;-7.01;100.00;98857.69;3147522;23;20250;-89
2024/01/22 05:06:00;;;;;;;38.95;13.00;;;;;;;-6.82;100.00;98851.84;3131978;23;20397;-90
2024/01/22 05:07:17;;;;;;;32.97;13.02;;;;;;;-6.91;100.00;98858.16;3139567;23;20077;-90
2024/01/22 05:08:33;;;;;;;34.78;13.95;;;;;;;-6.98;100.00;98851.91;3117836;23;20015;-89
2024/01/22 05:09:59;;;;;;;33.70;13.13;;;;;;;-7.05;100.00;98848.19;3103340;23;20117;-88
2024/01/22 05:11:15;;;;;;;32.30;12.90;;;;;;;-7.04;100.00;98846.53;3103977;23;20047;-89
2024/01/22 05:12:33;;;;;;;34.83;13.05;;;;;;;-6.89;100.00;98843.81;3113371;23;20482;-90
2024/01/22 05:13:57;;;;;;;32.05;12.38;;;;;;;-6.89;100.00;98843.81;3126413;23;20021;-89
2024/01/22 05:15:13;;;;;;;33.10;13.65;;;;;;;-6.91;100.00;98837.78;3122845;23;20021;-89
2024/01/22 05:16:29;;;;;;;31.38;13.65;;;;;;;-7.05;100.00;98840.53;3108946;23;20030;-89
2024/01/22 05:17:45;;;;;;;35.38;12.50;;;;;;;-7.11;100.00;98845.34;3115460;23;20023;-89
2024/01/22 05:19:03;;;;;;;30.90;12.05;;;;;;;-6.89;100.00;98847.25;3124982;23;20113;-89
2024/01/22 05:20:20;;;;;;;31.70;12.10;;;;;;;-6.87;100.00;98837.13;3109485;23;20437;-89
2024/01/22 05:21:36;;;;;;;34.53;13.05;;;;;;;-6.79;100.00;98835.84;3130064;23;20022;-89
2024/01/22 05:22:54;;;;;;;36.95;13.18;;;;;;;-7.02;100.00;98830.50;3132580;23;20507;-89
2024/01/22 05:24:12;;;;;;;35.45;13.02;;;;;;;-7.13;100.00;98831.66;3137019;23;20042;-89
2024/01/22 05:25:29;;;;;;;37.20;14.38;;;;;;;-6.99;100.00;98824.69;3118013;23;20467;-89
2024/01/22 05:26:46;;;;;;;36.40;14.23;;;;;;;-7.34;100.00;98822.19;3114878;23;20077;-88
2024/01/22 05:28:02;;;;;;;34.28;13.15;;;;;;;-7.34;100.00;98817.09;3138600;23;20125;-89
2024/01/22 05:29:18;;;;;;;31.55;13.40;;;;;;;-7.41;100.00;98813.38;3132039;23;20011;-89
2024/01/22 05:30:36;;;;;;;36.40;12.82;;;;;;;-7.39;100.00;98818.56;3109021;23;20110;-90
2024/01/22 05:31:53;;;;;;;29.80;11.23;;;;;;;-7.46;100.00;98814.84;3101116;23;20472;-90
2024/01/22 05:33:10;;;;;;;21.52;9.25;;;;;;;-7.52;100.00;98817.06;3109784;23;20070;-90
2024/01/22 05:34:26;;;;;;;33.08;13.77;;;;;;;-7.35;100.00;98820.44;3124620;23;20479;-90
2024/01/22 05:35:42;;;;;;;33.28;12.15;;;;;;;-7.25;100.00;98822.66;3123907;23;20011;-89
2024/01/22 05:36:58;;;;;;;38.50;12.85;;;;;;;-7.20;100.00;98822.00;3139213;23;20033;-89
2024/01/22 05:38:14;;;;;;;42.85;14.73;;;;;;;-6.86;100.00;98823.59;3148570;23;20023;-88
2024/01/22 05:39:30;;;;;;;35.03;12.98;;;;;;;-6.72;100.00;98814.94;3132799;23;20021;-88
2024/01/22 05:40:48;;;;;;;35.15;12.68;;;;;;;-6.63;100.00;98811.09;3138515;23;20021;-89
2024/01/22 05:42:04;;;;;;;30.23;12.45;;;;;;;-6.61;100.00;98818.00;3118357;23;20018;-89
2024/01/22 05:43:20;;;;;;;35.78;13.02;;;;;;;-6.55;100.00;98820.81;3115561;23;20019;-89
2024/01/22 05:44:36;;;;;;;35.40;12.45;;;;;;;-6.90;100.00;98812.41;3123953;23;20015;-89
2024/01/22 05:45:52;;;;;;;37.45;11.07;;;;;;;-6.99;100.00;98820.47;3136680;23;20085;-88
2024/01/22 05:47:08;;;;;;;24.65;10.95;;;;;;;-6.77;100.00;98824.03;3120485;23;20015;-88
2024/01/22 05:48:24;;;;;;;28.63;11.73;;;;;;;-6.46;100.00;98820.38;3126610;23;20043;-88